Elettra — H9AK — position and weather

sailwx.info

Track history (hours):
 
Tides and Currents Weather Stations Pressure Air Temp Water Temp Dewpoint Dewpoint Depression Visibility Wind Speed Wind Dir Waves Ship Positions

Elettra

Last reported at 2017-Oct-05 20:04 UTC. Time now 2017-Nov-18 08:53 UTC.
Position S 27°43' E 153°52'.
Warning: this ship's position is 43 days out of date.

Length 254 m; draft 13.5 m.

Type: Cargo ship. MMSI: 371188000.

Date/timePositionNaut miles runAvg speedWind from/ knotsBaromVisibWave heightAir tempDewpointWater temp
2017-Oct-05 20:04S 27°43' E 153°52'1 8.6
2017-Oct-05 20:00S 27°43' E 153°52'7 8.6
2017-Oct-05 19:10S 27°50' E 153°52'1 8.5
2017-Oct-05 19:00S 27°52' E 153°52'4 8.5
2017-Oct-05 18:29S 27°56' E 153°52'4 8.4
2017-Oct-05 18:00S 28°00' E 153°52'5 8.4
2017-Oct-05 17:24S 28°05' E 153°52'3 8.3
2017-Oct-05 17:00S 28°08' E 153°52'13 8.3
2017-Oct-05 15:29S 28°21' E 153°52'4 8.2
2017-Oct-05 15:00S 28°25' E 153°53'4 8.1
2017-Oct-05 14:26S 28°30' E 153°53'4 8.0
2017-Oct-05 13:56S 28°34' E 153°52'3 8.0
2017-Oct-05 13:31S 28°37' E 153°52'5 8.2
2017-Oct-05 12:51S 28°42' E 153°52'3 8.4
2017-Oct-05 12:30S 28°45' E 153°52'8 8.5
2017-Oct-05 11:35S 28°53' E 153°52'2 8.6
2017-Oct-05 11:23S 28°55' E 153°51'3 8.9
2017-Oct-05 11:00S 28°58' E 153°50'2610.0
2017-Oct-05 08:25S 29°23' E 153°43'194 8.7
2017-Oct-04 10:11S 32°31' E 152°45'2 7.7
2017-Oct-04 09:54S 32°33' E 152°45'3 7.7
2017-Oct-04 09:30S 32°36' E 152°44'4 7.5
2017-Oct-04 09:00S 32°40' E 152°44'4 8.1
2017-Oct-04 08:31S 32°42' E 152°40'4 8.8
2017-Oct-04 08:00S 32°44' E 152°35'5 9.3
2017-Oct-04 07:30S 32°46' E 152°30'510.2
2017-Oct-04 07:01S 32°48' E 152°24'510.8
2017-Oct-04 06:30S 32°50' E 152°19'510.2
2017-Oct-04 06:01S 32°53' E 152°13'510.3
2017-Oct-04 05:30S 32°54' E 152°07'510.3
2017-Oct-04 05:01S 32°55' E 152°01'510.3
2017-Oct-04 04:30S 32°55' E 151°55'5 9.1
2017-Oct-04 04:01S 32°56' E 151°50'2 4.5
2017-Oct-04 03:30S 32°55' E 151°47'2 3.4
2017-Oct-04 03:00S 32°54' E 151°46'1 1.1
2017-Oct-04 02:23S 32°53' E 151°46'0 0.0
2017-Oct-04 01:59S 32°53' E 151°46'0 0.0
2017-Oct-04 01:28S 32°53' E 151°46'0 0.0
2017-Oct-04 00:59S 32°53' E 151°46'0 0.0
2017-Oct-04 00:26S 32°53' E 151°46'0 0.0
2017-Oct-03 23:56S 32°53' E 151°46'0 0.0
2017-Oct-03 23:29S 32°53' E 151°46'0 0.0
2017-Oct-03 22:58S 32°53' E 151°46'0 0.0
2017-Oct-03 22:29S 32°53' E 151°46'0 0.0
2017-Oct-03 21:59S 32°53' E 151°46'0 0.0
2017-Oct-03 21:28S 32°53' E 151°46'0 0.0
2017-Oct-03 20:43S 32°53' E 151°46'0 0.0
2017-Oct-03 20:28S 32°53' E 151°46'0 0.0
2017-Oct-03 19:59S 32°53' E 151°46'0 0.0
2017-Oct-03 18:47S 32°53' E 151°46'0 0.0
2017-Oct-03 18:17S 32°53' E 151°46'0 0.0
2017-Oct-03 17:58S 32°53' E 151°46'0 0.0
2017-Oct-03 17:28S 32°53' E 151°46'0 0.0
2017-Oct-03 16:11S 32°53' E 151°46'0 0.0
2017-Oct-03 15:59S 32°53' E 151°46'0 0.0
2017-Oct-03 15:29S 32°53' E 151°46'0 0.0
2017-Oct-03 14:59S 32°53' E 151°46'0 0.0
2017-Oct-03 13:56S 32°53' E 151°46'0 0.0
2017-Oct-03 13:05S 32°53' E 151°46'0 0.0
2017-Oct-03 12:55S 32°53' E 151°46'0 0.0
2017-Oct-03 12:28S 32°53' E 151°46'0 0.0
2017-Oct-03 11:59S 32°53' E 151°46'0 0.0
2017-Oct-03 09:56S 32°53' E 151°46'0 0.0
2017-Oct-03 09:28S 32°53' E 151°46'0 0.0
2017-Oct-03 08:58S 32°53' E 151°46'0 0.0
2017-Oct-03 08:26S 32°53' E 151°46'0 0.0
2017-Oct-03 07:49S 32°53' E 151°46'0 0.0
2017-Oct-03 07:29S 32°53' E 151°46'0 0.0
2017-Oct-03 06:59S 32°53' E 151°46'0 0.0
2017-Oct-03 06:29S 32°53' E 151°46'0 0.0
2017-Oct-03 05:59S 32°53' E 151°46'0 0.0
2017-Oct-03 05:29S 32°53' E 151°46'0 0.0
2017-Oct-03 04:55S 32°53' E 151°46'0 0.0
2017-Oct-03 04:26S 32°53' E 151°46'0 0.0
2017-Oct-03 03:59S 32°53' E 151°46'0 0.0
2017-Oct-03 03:25S 32°53' E 151°46'0 0.0
2017-Oct-03 02:58S 32°53' E 151°46'0 0.5
2017-Oct-03 02:30S 32°53' E 151°46'2 3.6
2017-Oct-03 02:00S 32°55' E 151°47'3 6.6
2017-Oct-03 01:30S 32°55' E 151°50'4 7.4
2017-Oct-03 01:00S 32°59' E 151°52'4 8.8
2017-Oct-03 00:30S 32°58' E 151°57'1 1.6
2017-Oct-03 00:00S 32°58' E 151°58'2 4.0
2017-Oct-02 23:30S 32°57' E 152°00'2 4.8
2017-Oct-02 23:00S 32°57' E 152°03'3 5.2
2017-Oct-02 22:30S 32°56' E 152°06'3 5.0
2017-Oct-02 22:00S 32°56' E 152°09'5 9.2
2017-Oct-02 21:30S 32°55' E 152°15'612.0
2017-Oct-02 21:00S 32°52' E 152°20'3 6.6
2017-Oct-02 20:30S 32°50' E 152°24'4 7.4
2017-Oct-02 20:00S 32°49' E 152°28'612.0
2017-Oct-02 19:30S 32°45' E 152°34'612.9
2017-Oct-02 19:00S 32°43' E 152°41'713.5
2017-Oct-02 18:30S 32°37' E 152°46'814.9
2017-Oct-02 18:00S 32°30' E 152°48'714.4
2017-Oct-02 17:30S 32°23' E 152°50'914.1
2017-Oct-02 16:52S 32°14' E 152°53'1714.1
2017-Oct-02 15:38S 31°57' E 152°58'20611.0
2017-Oct-01 20:54S 28°36' E 153°52'613.5
2017-Oct-01 20:29S 28°31' E 153°52'713.6
2017-Oct-01 19:58S 28°24' E 153°52'714.0
2017-Oct-01 19:30S 28°17' E 153°53'714.0
2017-Oct-01 19:00S 28°10' E 153°52'714.3
2017-Oct-01 18:30S 28°03' E 153°52'714.3
2017-Oct-01 18:00S 27°56' E 153°52'714.0
2017-Oct-01 17:30S 27°49' E 153°52'713.5
2017-Oct-01 17:00S 27°42' E 153°53'6 6.9
2017-Oct-01 16:11S 27°47' E 153°56'2 9.0
2017-Oct-01 15:59S 27°49' E 153°56'3 7.4
2017-Oct-01 15:30S 27°50' E 153°53'613.0
2017-Oct-01 15:00S 27°44' E 153°52'  
Track history (hours):
 
Tides and Currents Weather Stations Pressure Air Temp Water Temp Dewpoint Dewpoint Depression Visibility Wind Speed Wind Dir Waves Ship Positions

Elettra

Last reported at 2017-Oct-05 20:04 UTC. Time now 2017-Nov-18 08:53 UTC.
Position S 27°43' E 153°52'.
Warning: this ship's position is 43 days out of date.

Length 254 m; draft 13.5 m.

Type: Cargo ship. MMSI: 371188000.

Date/timePositionNaut miles runAvg speedWind from/ knotsBaromVisibWave heightAir tempDewpointWater temp
2017-Oct-05 20:04S 27°43' E 153°52'1 8.6
2017-Oct-05 20:00S 27°43' E 153°52'7 8.6
2017-Oct-05 19:10S 27°50' E 153°52'1 8.5
2017-Oct-05 19:00S 27°52' E 153°52'4 8.5
2017-Oct-05 18:29S 27°56' E 153°52'4 8.4
2017-Oct-05 18:00S 28°00' E 153°52'5 8.4
2017-Oct-05 17:24S 28°05' E 153°52'3 8.3
2017-Oct-05 17:00S 28°08' E 153°52'13 8.3
2017-Oct-05 15:29S 28°21' E 153°52'4 8.2
2017-Oct-05 15:00S 28°25' E 153°53'4 8.1
2017-Oct-05 14:26S 28°30' E 153°53'4 8.0
2017-Oct-05 13:56S 28°34' E 153°52'3 8.0
2017-Oct-05 13:31S 28°37' E 153°52'5 8.2
2017-Oct-05 12:51S 28°42' E 153°52'3 8.4
2017-Oct-05 12:30S 28°45' E 153°52'8 8.5
2017-Oct-05 11:35S 28°53' E 153°52'2 8.6
2017-Oct-05 11:23S 28°55' E 153°51'3 8.9
2017-Oct-05 11:00S 28°58' E 153°50'2610.0
2017-Oct-05 08:25S 29°23' E 153°43'194 8.7
2017-Oct-04 10:11S 32°31' E 152°45'2 7.7
2017-Oct-04 09:54S 32°33' E 152°45'3 7.7
2017-Oct-04 09:30S 32°36' E 152°44'4 7.5
2017-Oct-04 09:00S 32°40' E 152°44'4 8.1
2017-Oct-04 08:31S 32°42' E 152°40'4 8.8
2017-Oct-04 08:00S 32°44' E 152°35'5 9.3
2017-Oct-04 07:30S 32°46' E 152°30'510.2
2017-Oct-04 07:01S 32°48' E 152°24'510.8
2017-Oct-04 06:30S 32°50' E 152°19'510.2
2017-Oct-04 06:01S 32°53' E 152°13'510.3
2017-Oct-04 05:30S 32°54' E 152°07'510.3
2017-Oct-04 05:01S 32°55' E 152°01'510.3
2017-Oct-04 04:30S 32°55' E 151°55'5 9.1
2017-Oct-04 04:01S 32°56' E 151°50'2 4.5
2017-Oct-04 03:30S 32°55' E 151°47'2 3.4
2017-Oct-04 03:00S 32°54' E 151°46'1 1.1
2017-Oct-04 02:23S 32°53' E 151°46'0 0.0
2017-Oct-04 01:59S 32°53' E 151°46'0 0.0
2017-Oct-04 01:28S 32°53' E 151°46'0 0.0
2017-Oct-04 00:59S 32°53' E 151°46'0 0.0
2017-Oct-04 00:26S 32°53' E 151°46'0 0.0
2017-Oct-03 23:56S 32°53' E 151°46'0 0.0
2017-Oct-03 23:29S 32°53' E 151°46'0 0.0
2017-Oct-03 22:58S 32°53' E 151°46'0 0.0
2017-Oct-03 22:29S 32°53' E 151°46'0 0.0
2017-Oct-03 21:59S 32°53' E 151°46'0 0.0
2017-Oct-03 21:28S 32°53' E 151°46'0 0.0
2017-Oct-03 20:43S 32°53' E 151°46'0 0.0
2017-Oct-03 20:28S 32°53' E 151°46'0 0.0
2017-Oct-03 19:59S 32°53' E 151°46'0 0.0
2017-Oct-03 18:47S 32°53' E 151°46'0 0.0
2017-Oct-03 18:17S 32°53' E 151°46'0 0.0
2017-Oct-03 17:58S 32°53' E 151°46'0 0.0
2017-Oct-03 17:28S 32°53' E 151°46'0 0.0
2017-Oct-03 16:11S 32°53' E 151°46'0 0.0
2017-Oct-03 15:59S 32°53' E 151°46'0 0.0
2017-Oct-03 15:29S 32°53' E 151°46'0 0.0
2017-Oct-03 14:59S 32°53' E 151°46'0 0.0
2017-Oct-03 13:56S 32°53' E 151°46'0 0.0
2017-Oct-03 13:05S 32°53' E 151°46'0 0.0
2017-Oct-03 12:55S 32°53' E 151°46'0 0.0
2017-Oct-03 12:28S 32°53' E 151°46'0 0.0
2017-Oct-03 11:59S 32°53' E 151°46'0 0.0
2017-Oct-03 09:56S 32°53' E 151°46'0 0.0
2017-Oct-03 09:28S 32°53' E 151°46'0 0.0
2017-Oct-03 08:58S 32°53' E 151°46'0 0.0
2017-Oct-03 08:26S 32°53' E 151°46'0 0.0
2017-Oct-03 07:49S 32°53' E 151°46'0 0.0
2017-Oct-03 07:29S 32°53' E 151°46'0 0.0
2017-Oct-03 06:59S 32°53' E 151°46'0 0.0
2017-Oct-03 06:29S 32°53' E 151°46'0 0.0
2017-Oct-03 05:59S 32°53' E 151°46'0 0.0
2017-Oct-03 05:29S 32°53' E 151°46'0 0.0
2017-Oct-03 04:55S 32°53' E 151°46'0 0.0
2017-Oct-03 04:26S 32°53' E 151°46'0 0.0
2017-Oct-03 03:59S 32°53' E 151°46'0 0.0
2017-Oct-03 03:25S 32°53' E 151°46'0 0.0
2017-Oct-03 02:58S 32°53' E 151°46'0 0.5
2017-Oct-03 02:30S 32°53' E 151°46'2 3.6
2017-Oct-03 02:00S 32°55' E 151°47'3 6.6
2017-Oct-03 01:30S 32°55' E 151°50'4 7.4
2017-Oct-03 01:00S 32°59' E 151°52'4 8.8
2017-Oct-03 00:30S 32°58' E 151°57'1 1.6
2017-Oct-03 00:00S 32°58' E 151°58'2 4.0
2017-Oct-02 23:30S 32°57' E 152°00'2 4.8
2017-Oct-02 23:00S 32°57' E 152°03'3 5.2
2017-Oct-02 22:30S 32°56' E 152°06'3 5.0
2017-Oct-02 22:00S 32°56' E 152°09'5 9.2
2017-Oct-02 21:30S 32°55' E 152°15'612.0
2017-Oct-02 21:00S 32°52' E 152°20'3 6.6
2017-Oct-02 20:30S 32°50' E 152°24'4 7.4
2017-Oct-02 20:00S 32°49' E 152°28'612.0
2017-Oct-02 19:30S 32°45' E 152°34'612.9
2017-Oct-02 19:00S 32°43' E 152°41'713.5
2017-Oct-02 18:30S 32°37' E 152°46'814.9
2017-Oct-02 18:00S 32°30' E 152°48'714.4
2017-Oct-02 17:30S 32°23' E 152°50'914.1
2017-Oct-02 16:52S 32°14' E 152°53'1714.1
2017-Oct-02 15:38S 31°57' E 152°58'20611.0
2017-Oct-01 20:54S 28°36' E 153°52'613.5
2017-Oct-01 20:29S 28°31' E 153°52'713.6
2017-Oct-01 19:58S 28°24' E 153°52'714.0
2017-Oct-01 19:30S 28°17' E 153°53'714.0
2017-Oct-01 19:00S 28°10' E 153°52'714.3
2017-Oct-01 18:30S 28°03' E 153°52'714.3
2017-Oct-01 18:00S 27°56' E 153°52'714.0
2017-Oct-01 17:30S 27°49' E 153°52'713.5
2017-Oct-01 17:00S 27°42' E 153°53'6 6.9
2017-Oct-01 16:11S 27°47' E 153°56'2 9.0
2017-Oct-01 15:59S 27°49' E 153°56'3 7.4
2017-Oct-01 15:30S 27°50' E 153°53'613.0
2017-Oct-01 15:00S 27°44' E 153°52'  

Dump ship's entire track history